sensor_id;sensor_type;location;lat;lon;timestamp;pressure;altitude;pressure_sealevel;temperature;humidity
50394;BME280;36308;46.312;25.288;2022-08-01T00:00:32;95729.41;;;18.49;69.93
50394;BME280;36308;46.312;25.288;2022-08-01T00:02:58;95727.31;;;18.46;70.17
50394;BME280;36308;46.312;25.288;2022-08-01T00:05:23;95720.88;;;18.42;70.04
50394;BME280;36308;46.312;25.288;2022-08-01T00:07:49;95720.09;;;18.42;69.92
50394;BME280;36308;46.312;25.288;2022-08-01T00:10:16;95715.75;;;18.41;69.97
50394;BME280;36308;46.312;25.288;2022-08-01T00:12:42;95719.91;;;18.38;69.96
50394;BME280;36308;46.312;25.288;2022-08-01T00:15:10;95724.38;;;18.34;69.83
50394;BME280;36308;46.312;25.288;2022-08-01T00:17:36;95728.84;;;18.30;70.03
50394;BME280;36308;46.312;25.288;2022-08-01T00:20:03;95725.97;;;18.26;70.12
50394;BME280;36308;46.312;25.288;2022-08-01T00:22:32;95724.66;;;18.24;70.44
50394;BME280;36308;46.312;25.288;2022-08-01T00:24:59;95723.69;;;18.20;70.59
50394;BME280;36308;46.312;25.288;2022-08-01T00:27:24;95722.88;;;18.19;70.49
50394;BME280;36308;46.312;25.288;2022-08-01T00:29:50;95720.81;;;18.16;70.54
50394;BME280;36308;46.312;25.288;2022-08-01T00:32:15;95717.59;;;18.14;70.99
50394;BME280;36308;46.312;25.288;2022-08-01T00:34:41;95721.09;;;18.14;71.06
50394;BME280;36308;46.312;25.288;2022-08-01T00:37:06;95719.47;;;18.13;70.90
50394;BME280;36308;46.312;25.288;2022-08-01T00:39:31;95717.09;;;18.12;70.90
50394;BME280;36308;46.312;25.288;2022-08-01T00:41:59;95724.78;;;18.10;70.77
50394;BME280;36308;46.312;25.288;2022-08-01T00:44:24;95722.97;;;18.05;70.96
50394;BME280;36308;46.312;25.288;2022-08-01T00:46:49;95719.75;;;18.03;71.47
50394;BME280;36308;46.312;25.288;2022-08-01T00:49:15;95711.94;;;18.02;71.20
50394;BME280;36308;46.312;25.288;2022-08-01T00:51:40;95710.94;;;17.97;71.39
50394;BME280;36308;46.312;25.288;2022-08-01T00:54:06;95707.75;;;17.95;71.54
50394;BME280;36308;46.312;25.288;2022-08-01T00:56:31;95703.09;;;17.96;71.70
50394;BME280;36308;46.312;25.288;2022-08-01T00:58:57;95703.91;;;17.96;71.88
50394;BME280;36308;46.312;25.288;2022-08-01T01:01:23;95710.13;;;17.97;71.96
50394;BME280;36308;46.312;25.288;2022-08-01T01:03:50;95706.31;;;17.98;72.06
50394;BME280;36308;46.312;25.288;2022-08-01T01:14:38;95710.31;;;18.01;72.25
50394;BME280;36308;46.312;25.288;2022-08-01T01:17:11;95708.09;;;18.03;72.27
50394;BME280;36308;46.312;25.288;2022-08-01T01:19:43;95707.28;;;18.02;72.29
50394;BME280;36308;46.312;25.288;2022-08-01T01:30:18;95710.13;;;17.97;72.09
50394;BME280;36308;46.312;25.288;2022-08-01T01:32:48;95707.25;;;17.93;72.18
50394;BME280;36308;46.312;25.288;2022-08-01T01:35:24;95702.13;;;17.92;72.21
50394;BME280;36308;46.312;25.288;2022-08-01T01:37:56;95706.75;;;17.91;72.39
50394;BME280;36308;46.312;25.288;2022-08-01T01:40:23;95700.53;;;17.91;72.58
50394;BME280;36308;46.312;25.288;2022-08-01T01:42:50;95717.00;;;17.94;72.72
50394;BME280;36308;46.312;25.288;2022-08-01T01:45:18;95712.34;;;17.95;72.64
50394;BME280;36308;46.312;25.288;2022-08-01T01:47:44;95706.91;;;17.95;72.62
50394;BME280;36308;46.312;25.288;2022-08-01T01:50:11;95705.81;;;17.96;72.70
50394;BME280;36308;46.312;25.288;2022-08-01T01:52:39;95709.97;;;17.93;72.46
50394;BME280;36308;46.312;25.288;2022-08-01T01:55:07;95714.63;;;17.93;72.73
50394;BME280;36308;46.312;25.288;2022-08-01T01:57:36;95702.13;;;17.92;72.85
50394;BME280;36308;46.312;25.288;2022-08-01T02:00:03;95703.56;;;17.89;73.16
50394;BME280;36308;46.312;25.288;2022-08-01T02:02:32;95700.66;;;17.86;73.11
50394;BME280;36308;46.312;25.288;2022-08-01T02:04:59;95703.38;;;17.86;73.16
50394;BME280;36308;46.312;25.288;2022-08-01T02:07:25;95696.34;;;17.85;73.39
50394;BME280;36308;46.312;25.288;2022-08-01T02:09:54;95704.16;;;17.86;73.86
50394;BME280;36308;46.312;25.288;2022-08-01T02:12:20;95700.66;;;17.86;73.58
50394;BME280;36308;46.312;25.288;2022-08-01T02:14:48;95703.38;;;17.86;73.61
50394;BME280;36308;46.312;25.288;2022-08-01T02:17:16;95706.09;;;17.86;73.81
50394;BME280;36308;46.312;25.288;2022-08-01T02:19:44;95699.34;;;17.83;73.83
50394;BME280;36308;46.312;25.288;2022-08-01T02:22:14;95704.00;;;17.83;73.60
50394;BME280;36308;46.312;25.288;2022-08-01T02:24:45;95696.91;;;17.82;73.86
50394;BME280;36308;46.312;25.288;2022-08-01T02:27:15;95705.06;;;17.82;73.98
50394;BME280;36308;46.312;25.288;2022-08-01T02:29:43;95696.91;;;17.82;73.88
50394;BME280;36308;46.312;25.288;2022-08-01T02:32:19;95703.16;;;17.82;73.91
50394;BME280;36308;46.312;25.288;2022-08-01T02:34:47;95692.91;;;17.79;73.92
50394;BME280;36308;46.312;25.288;2022-08-01T02:37:14;95696.91;;;17.82;73.92
50394;BME280;36308;46.312;25.288;2022-08-01T02:39:42;95701.56;;;17.81;74.07
50394;BME280;36308;46.312;25.288;2022-08-01T02:42:11;95701.88;;;17.80;74.05
50394;BME280;36308;46.312;25.288;2022-08-01T02:44:41;95694.84;;;17.78;74.05
50394;BME280;36308;46.312;25.288;2022-08-01T02:47:08;95694.50;;;17.80;74.15
50394;BME280;36308;46.312;25.288;2022-08-01T02:49:39;95698.03;;;17.81;74.12
50394;BME280;36308;46.312;25.288;2022-08-01T02:52:08;95695.31;;;17.81;74.31
50394;BME280;36308;46.312;25.288;2022-08-01T02:54:36;95696.13;;;17.81;73.87
50394;BME280;36308;46.312;25.288;2022-08-01T02:57:03;95694.50;;;17.80;74.24
50394;BME280;36308;46.312;25.288;2022-08-01T02:59:29;95690.69;;;17.81;74.22
50394;BME280;36308;46.312;25.288;2022-08-01T03:01:57;95689.88;;;17.81;74.20
50394;BME280;36308;46.312;25.288;2022-08-01T03:04:24;95692.28;;;17.82;74.23
50394;BME280;36308;46.312;25.288;2022-08-01T03:06:53;95701.28;;;17.83;74.20
50394;BME280;36308;46.312;25.288;2022-08-01T03:09:19;95700.16;;;17.84;74.15
50394;BME280;36308;46.312;25.288;2022-08-01T03:11:48;95693.13;;;17.83;73.99
50394;BME280;36308;46.312;25.288;2022-08-01T03:14:15;95695.84;;;17.83;73.69
50394;BME280;36308;46.312;25.288;2022-08-01T03:16:44;95697.72;;;17.82;73.67
50394;BME280;36308;46.312;25.288;2022-08-01T03:19:11;95699.13;;;17.80;73.70
50394;BME280;36308;46.312;25.288;2022-08-01T03:21:39;95712.25;;;17.77;73.81
50394;BME280;36308;46.312;25.288;2022-08-01T03:24:07;95708.25;;;17.75;73.61
50394;BME280;36308;46.312;25.288;2022-08-01T03:26:36;95710.47;;;17.73;73.44
50394;BME280;36308;46.312;25.288;2022-08-01T03:29:11;95706.97;;;17.72;73.89
50394;BME280;36308;46.312;25.288;2022-08-01T03:31:38;95713.50;;;17.71;73.74
50394;BME280;36308;46.312;25.288;2022-08-01T03:34:07;95704.84;;;17.69;73.77
50394;BME280;36308;46.312;25.288;2022-08-01T03:36:35;95720.56;;;17.72;73.97
50394;BME280;36308;46.312;25.288;2022-08-01T03:39:06;95718.31;;;17.74;73.92
50394;BME280;36308;46.312;25.288;2022-08-01T03:41:39;95719.13;;;17.75;73.62
50394;BME280;36308;46.312;25.288;2022-08-01T03:44:10;95725.34;;;17.75;73.94
50394;BME280;36308;46.312;25.288;2022-08-01T03:46:42;95726.97;;;17.76;74.18
50394;BME280;36308;46.312;25.288;2022-08-01T03:49:17;95723.75;;;17.74;74.17
50394;BME280;36308;46.312;25.288;2022-08-01T03:51:45;95722.31;;;17.77;74.01
50394;BME280;36308;46.312;25.288;2022-08-01T03:54:16;95725.34;;;17.75;74.01
50394;BME280;36308;46.312;25.288;2022-08-01T03:56:43;95715.28;;;17.76;74.23
50394;BME280;36308;46.312;25.288;2022-08-01T03:59:10;95716.88;;;17.77;74.16
50394;BME280;36308;46.312;25.288;2022-08-01T04:01:36;95721.69;;;17.80;74.23
50394;BME280;36308;46.312;25.288;2022-08-01T04:04:02;95715.47;;;17.80;74.53
50394;BME280;36308;46.312;25.288;2022-08-01T04:06:30;95723.31;;;17.81;74.46
50394;BME280;36308;46.312;25.288;2022-08-01T04:08:55;95724.09;;;17.82;74.40
50394;BME280;36308;46.312;25.288;2022-08-01T04:11:26;95733.59;;;17.84;74.14
50394;BME280;36308;46.312;25.288;2022-08-01T04:13:53;95729.75;;;17.85;74.14
50394;BME280;36308;46.312;25.288;2022-08-01T04:16:19;95723.53;;;17.85;74.02
50394;BME280;36308;46.312;25.288;2022-08-01T04:18:45;95726.25;;;17.85;74.00
50394;BME280;36308;46.312;25.288;2022-08-01T04:21:10;95724.63;;;17.84;74.18
50394;BME280;36308;46.312;25.288;2022-08-01T04:23:38;95728.97;;;17.85;74.06
50394;BME280;36308;46.312;25.288;2022-08-01T04:26:05;95726.81;;;17.82;73.92
50394;BME280;36308;46.312;25.288;2022-08-01T04:28:36;95729.53;;;17.82;74.01
50394;BME280;36308;46.312;25.288;2022-08-01T04:31:02;95727.97;;;17.81;74.15
50394;BME280;36308;46.312;25.288;2022-08-01T04:33:31;95724.91;;;17.82;74.11
50394;BME280;36308;46.312;25.288;2022-08-01T04:35:59;95724.09;;;17.82;73.93
50394;BME280;36308;46.312;25.288;2022-08-01T04:38:26;95729.53;;;17.82;74.13
50394;BME280;36308;46.312;25.288;2022-08-01T04:40:54;95731.78;;;17.80;74.11
50394;BME280;36308;46.312;25.288;2022-08-01T04:43:19;95727.47;;;17.78;74.05
50394;BME280;36308;46.312;25.288;2022-08-01T04:45:47;95732.06;;;17.78;74.02
50394;BME280;36308;46.312;25.288;2022-08-01T04:48:13;95731.78;;;17.80;74.16
50394;BME280;36308;46.312;25.288;2022-08-01T04:50:41;95728.25;;;17.79;73.93
50394;BME280;36308;46.312;25.288;2022-08-01T04:53:15;95734.78;;;17.78;74.29
50394;BME280;36308;46.312;25.288;2022-08-01T04:55:42;95726.34;;;17.80;74.27
50394;BME280;36308;46.312;25.288;2022-08-01T04:58:09;95731.78;;;17.80;74.16
50394;BME280;36308;46.312;25.288;2022-08-01T05:00:35;95728.56;;;17.77;74.21
50394;BME280;36308;46.312;25.288;2022-08-01T05:03:00;95734.97;;;17.82;74.21
50394;BME280;36308;46.312;25.288;2022-08-01T05:05:26;95731.19;;;17.83;74.27
50394;BME280;36308;46.312;25.288;2022-08-01T05:07:51;95738.22;;;17.84;74.33
50394;BME280;36308;46.312;25.288;2022-08-01T05:10:17;95737.63;;;17.87;74.28
50394;BME280;36308;46.312;25.288;2022-08-01T05:12:42;95740.00;;;17.88;74.18
50394;BME280;36308;46.312;25.288;2022-08-01T05:15:08;95730.75;;;17.89;74.31
50394;BME280;36308;46.312;25.288;2022-08-01T05:17:34;95739.41;;;17.91;74.09
50394;BME280;36308;46.312;25.288;2022-08-01T05:19:59;95734.44;;;17.93;73.78
50394;BME280;36308;46.312;25.288;2022-08-01T05:22:25;95741.19;;;17.96;73.84
50394;BME280;36308;46.312;25.288;2022-08-01T05:24:51;95731.41;;;17.95;73.89
50394;BME280;36308;46.312;25.288;2022-08-01T05:27:17;95737.81;;;17.99;73.92
50394;BME280;36308;46.312;25.288;2022-08-01T05:29:43;95736.09;;;18.03;74.18
50394;BME280;36308;46.312;25.288;2022-08-01T05:32:08;95747.16;;;18.07;74.02
50394;BME280;36308;46.312;25.288;2022-08-01T05:34:35;95740.28;;;18.09;73.84
50394;BME280;36308;46.312;25.288;2022-08-01T05:37:00;95740.44;;;18.13;73.81
50394;BME280;36308;46.312;25.288;2022-08-01T05:39:26;95739.03;;;18.15;73.74
50394;BME280;36308;46.312;25.288;2022-08-01T05:41:51;95742.22;;;18.17;73.75
50394;BME280;36308;46.312;25.288;2022-08-01T05:44:16;95747.06;;;18.21;73.85
50394;BME280;36308;46.312;25.288;2022-08-01T05:46:42;95751.88;;;18.24;73.82
50394;BME280;36308;46.312;25.288;2022-08-01T05:49:08;95748.22;;;18.28;74.22
50394;BME280;36308;46.312;25.288;2022-08-01T05:51:33;95754.31;;;18.34;74.05
50394;BME280;36308;46.312;25.288;2022-08-01T05:53:59;95751.47;;;18.39;73.89
50394;BME280;36308;46.312;25.288;2022-08-01T05:56:25;95749.72;;;18.43;73.65
50394;BME280;36308;46.312;25.288;2022-08-01T05:58:51;95758.84;;;18.47;73.30
50394;BME280;36308;46.312;25.288;2022-08-01T06:01:17;95763.16;;;18.48;73.23
50394;BME280;36308;46.312;25.288;2022-08-01T06:03:43;95762.56;;;18.51;73.11
50394;BME280;36308;46.312;25.288;2022-08-01T06:06:09;95761.13;;;18.54;73.02
50394;BME280;36308;46.312;25.288;2022-08-01T06:08:34;95765.13;;;18.56;73.04
50394;BME280;36308;46.312;25.288;2022-08-01T06:11:00;95764.50;;;18.60;72.78
50394;BME280;36308;46.312;25.288;2022-08-01T06:13:26;95763.06;;;18.62;72.94
50394;BME280;36308;46.312;25.288;2022-08-01T06:15:51;95762.41;;;18.65;73.02
50394;BME280;36308;46.312;25.288;2022-08-01T06:18:17;95761.00;;;18.68;72.82
50394;BME280;36308;46.312;25.288;2022-08-01T06:20:43;95768.41;;;18.76;71.77
50394;BME280;36308;46.312;25.288;2022-08-01T06:23:09;95763.78;;;18.85;71.29
50394;BME280;36308;46.312;25.288;2022-08-01T06:25:35;95767.31;;;18.94;71.70
50394;BME280;36308;46.312;25.288;2022-08-01T06:28:01;95767.84;;;19.05;71.34
50394;BME280;36308;46.312;25.288;2022-08-01T06:30:27;95764.00;;;19.15;70.87
50394;BME280;36308;46.312;25.288;2022-08-01T06:32:52;95766.41;;;19.25;70.46
50394;BME280;36308;46.312;25.288;2022-08-01T06:35:21;95766.41;;;19.34;69.50
50394;BME280;36308;46.312;25.288;2022-08-01T06:37:46;95769.00;;;19.39;69.22
50394;BME280;36308;46.312;25.288;2022-08-01T06:40:12;95776.19;;;19.44;68.81
50394;BME280;36308;46.312;25.288;2022-08-01T06:42:38;95771.72;;;19.48;68.55
50394;BME280;36308;46.312;25.288;2022-08-01T06:45:09;95768.38;;;19.51;68.09
50394;BME280;36308;46.312;25.288;2022-08-01T06:47:35;95764.66;;;19.55;68.08
50394;BME280;36308;46.312;25.288;2022-08-01T06:50:03;95764.84;;;19.59;68.30
50394;BME280;36308;46.312;25.288;2022-08-01T06:52:28;95762.59;;;19.61;67.84
50394;BME280;36308;46.312;25.288;2022-08-01T06:54:54;95765.13;;;19.66;67.90
50394;BME280;36308;46.312;25.288;2022-08-01T06:57:19;95759.03;;;19.69;67.75
50394;BME280;36308;46.312;25.288;2022-08-01T06:59:45;95760.16;;;19.68;67.53
50394;BME280;36308;46.312;25.288;2022-08-01T07:02:11;95761.16;;;19.72;67.61
50394;BME280;36308;46.312;25.288;2022-08-01T07:04:36;95763.56;;;19.74;67.49
50394;BME280;36308;46.312;25.288;2022-08-01T07:07:02;95764.50;;;19.78;67.98
50394;BME280;36308;46.312;25.288;2022-08-01T07:09:28;95762.41;;;19.84;67.84
50394;BME280;36308;46.312;25.288;2022-08-01T07:11:54;95763.84;;;19.90;67.81
50394;BME280;36308;46.312;25.288;2022-08-01T07:14:21;95758.53;;;19.93;67.63
50394;BME280;36308;46.312;25.288;2022-08-01T07:16:46;95765.28;;;19.96;67.55
50394;BME280;36308;46.312;25.288;2022-08-01T07:19:12;95761.72;;;20.04;67.60
50394;BME280;36308;46.312;25.288;2022-08-01T07:21:38;95759.47;;;20.06;67.15
50394;BME280;36308;46.312;25.288;2022-08-01T07:24:05;95770.38;;;20.06;67.11
50394;BME280;36308;46.312;25.288;2022-08-01T07:26:30;95766.06;;;20.05;67.11
50394;BME280;36308;46.312;25.288;2022-08-01T07:28:56;95765.41;;;20.08;66.99
50394;BME280;36308;46.312;25.288;2022-08-01T07:31:22;95778.06;;;20.13;66.94
50394;BME280;36308;46.312;25.288;2022-08-01T07:33:48;95769.88;;;20.13;66.63
50394;BME280;36308;46.312;25.288;2022-08-01T07:36:14;95765.25;;;20.13;66.26
50394;BME280;36308;46.312;25.288;2022-08-01T07:38:39;95760.41;;;20.10;66.06
50394;BME280;36308;46.312;25.288;2022-08-01T07:41:04;95759.78;;;20.13;66.20
50394;BME280;36308;46.312;25.288;2022-08-01T07:43:30;95761.34;;;20.23;66.16
50394;BME280;36308;46.312;25.288;2022-08-01T07:45:55;95750.41;;;20.32;66.50
50394;BME280;36308;46.312;25.288;2022-08-01T07:48:21;95758.72;;;20.44;66.53
50394;BME280;36308;46.312;25.288;2022-08-01T07:50:52;95762.88;;;20.50;65.89
50394;BME280;36308;46.312;25.288;2022-08-01T07:53:17;95762.19;;;20.53;65.33
50394;BME280;36308;46.312;25.288;2022-08-01T07:55:43;95759.31;;;20.58;65.20
50394;BME280;36308;46.312;25.288;2022-08-01T07:58:09;95759.31;;;20.58;65.08
50394;BME280;36308;46.312;25.288;2022-08-01T08:00:34;95760.41;;;20.66;65.13
50394;BME280;36308;46.312;25.288;2022-08-01T08:02:59;95761.97;;;20.76;65.15
50394;BME280;36308;46.312;25.288;2022-08-01T08:05:28;95770.59;;;20.87;64.79
50394;BME280;36308;46.312;25.288;2022-08-01T08:07:53;95763.66;;;20.89;64.62
50394;BME280;36308;46.312;25.288;2022-08-01T08:10:19;95760.88;;;20.98;64.39
50394;BME280;36308;46.312;25.288;2022-08-01T08:12:45;95770.81;;;21.03;64.17
50394;BME280;36308;46.312;25.288;2022-08-01T08:15:12;95769.97;;;21.11;64.16
50394;BME280;36308;46.312;25.288;2022-08-01T08:17:39;95773.16;;;21.13;63.50
50394;BME280;36308;46.312;25.288;2022-08-01T08:20:05;95773.16;;;21.13;63.07
50394;BME280;36308;46.312;25.288;2022-08-01T08:22:31;95768.34;;;21.10;62.61
50394;BME280;36308;46.312;25.288;2022-08-01T08:24:57;95777.69;;;21.09;62.29
50394;BME280;36308;46.312;25.288;2022-08-01T08:27:22;95781.53;;;21.08;62.56
50394;BME280;36308;46.312;25.288;2022-08-01T08:29:48;95779.28;;;21.10;62.61
50394;BME280;36308;46.312;25.288;2022-08-01T08:32:13;95780.91;;;21.11;62.66
50394;BME280;36308;46.312;25.288;2022-08-01T08:34:39;95787.94;;;21.12;62.06
50394;BME280;36308;46.312;25.288;2022-08-01T08:37:04;95781.84;;;21.15;62.25
50394;BME280;36308;46.312;25.288;2022-08-01T08:39:29;95784.38;;;21.20;62.49
50394;BME280;36308;46.312;25.288;2022-08-01T08:41:59;95780.50;;;21.21;62.27
50394;BME280;36308;46.312;25.288;2022-08-01T08:44:27;95793.03;;;21.22;61.91
50394;BME280;36308;46.312;25.288;2022-08-01T08:46:52;95788.25;;;21.19;61.86
50394;BME280;36308;46.312;25.288;2022-08-01T08:49:21;95785.97;;;21.21;61.83
50394;BME280;36308;46.312;25.288;2022-08-01T08:51:49;95790.78;;;21.24;61.75
50394;BME280;36308;46.312;25.288;2022-08-01T08:54:15;95790.13;;;21.27;61.61
50394;BME280;36308;46.312;25.288;2022-08-01T08:56:42;95786.25;;;21.28;61.61
50394;BME280;36308;46.312;25.288;2022-08-01T08:59:07;95788.78;;;21.33;61.72
50394;BME280;36308;46.312;25.288;2022-08-01T09:01:33;95784.75;;;21.31;61.19
50394;BME280;36308;46.312;25.288;2022-08-01T09:04:01;95793.66;;;21.28;60.99
50394;BME280;36308;46.312;25.288;2022-08-01T09:06:26;95782.56;;;21.24;60.99
50394;BME280;36308;46.312;25.288;2022-08-01T09:08:53;95783.84;;;21.27;61.35
50394;BME280;36308;46.312;25.288;2022-08-01T09:11:19;95787.19;;;21.32;61.21
50394;BME280;36308;46.312;25.288;2022-08-01T09:16:32;95783.97;;;21.30;60.70
50394;BME280;36308;46.312;25.288;2022-08-01T09:19:13;95779.84;;;21.24;60.59
50394;BME280;36308;46.312;25.288;2022-08-01T09:21:39;95788.78;;;21.33;60.64
50394;BME280;36308;46.312;25.288;2022-08-01T09:24:13;95789.03;;;21.40;61.30
50394;BME280;36308;46.312;25.288;2022-08-01T09:26:39;95781.13;;;21.48;60.47
50394;BME280;36308;46.312;25.288;2022-08-01T09:29:06;95798.53;;;21.64;60.60
50394;BME280;36308;46.312;25.288;2022-08-01T09:31:40;95792.66;;;21.74;60.34
50394;BME280;36308;46.312;25.288;2022-08-01T09:34:07;95792.25;;;21.85;59.79
50394;BME280;36308;46.312;25.288;2022-08-01T09:36:51;95792.53;;;21.92;59.45
50394;BME280;36308;46.312;25.288;2022-08-01T09:39:18;95783.44;;;22.00;59.13
50394;BME280;36308;46.312;25.288;2022-08-01T09:41:45;95785.28;;;22.08;59.02
50394;BME280;36308;46.312;25.288;2022-08-01T09:44:11;95788.59;;;22.14;58.68
50394;BME280;36308;46.312;25.288;2022-08-01T09:46:52;95782.56;;;22.20;58.11
50394;BME280;36308;46.312;25.288;2022-08-01T09:49:35;95791.50;;;22.30;58.10
50394;BME280;36308;46.312;25.288;2022-08-01T09:52:15;95801.13;;;22.36;57.93
50394;BME280;36308;46.312;25.288;2022-08-01T09:54:44;95798.84;;;22.38;58.06
50394;BME280;36308;46.312;25.288;2022-08-01T09:57:17;95794.94;;;22.39;58.02
50394;BME280;36308;46.312;25.288;2022-08-01T09:59:47;95793.03;;;22.39;57.70
50394;BME280;36308;46.312;25.288;2022-08-01T10:02:14;95794.94;;;22.39;57.59
50394;BME280;36308;46.312;25.288;2022-08-01T10:04:51;95796.56;;;22.40;57.70
50394;BME280;36308;46.312;25.288;2022-08-01T10:07:18;95794.28;;;22.42;57.29
50394;BME280;36308;46.312;25.288;2022-08-01T10:09:45;95788.09;;;22.45;57.31
50394;BME280;36308;46.312;25.288;2022-08-01T10:12:17;95788.38;;;22.52;56.90
50394;BME280;36308;46.312;25.288;2022-08-01T10:14:45;95782.91;;;22.65;56.81
50394;BME280;36308;46.312;25.288;2022-08-01T10:17:15;95778.34;;;22.81;56.66
50394;BME280;36308;46.312;25.288;2022-08-01T10:19:42;95775.47;;;22.90;56.36
50394;BME280;36308;46.312;25.288;2022-08-01T10:22:09;95782.94;;;23.02;56.12
50394;BME280;36308;46.312;25.288;2022-08-01T10:24:39;95790.91;;;23.07;56.06
50394;BME280;36308;46.312;25.288;2022-08-01T10:27:07;95782.81;;;23.10;55.49
50394;BME280;36308;46.312;25.288;2022-08-01T10:29:46;95786.78;;;23.13;55.25
50394;BME280;36308;46.312;25.288;2022-08-01T10:32:12;95790.44;;;23.17;55.27
50394;BME280;36308;46.312;25.288;2022-08-01T10:34:38;95782.09;;;23.13;55.06
50394;BME280;36308;46.312;25.288;2022-08-01T10:37:04;95771.03;;;23.10;55.24
50394;BME280;36308;46.312;25.288;2022-08-01T10:39:32;95776.28;;;23.15;54.49
50394;BME280;36308;46.312;25.288;2022-08-01T10:41:58;95779.94;;;23.19;54.57
50394;BME280;36308;46.312;25.288;2022-08-01T10:44:26;95778.09;;;23.23;54.53
50394;BME280;36308;46.312;25.288;2022-08-01T10:46:57;95781.41;;;23.29;54.43
50394;BME280;36308;46.312;25.288;2022-08-01T10:49:28;95781.94;;;23.34;54.33
50394;BME280;36308;46.312;25.288;2022-08-01T10:51:54;95784.81;;;23.38;54.48
50394;BME280;36308;46.312;25.288;2022-08-01T10:54:24;95785.59;;;23.38;53.88
50394;BME280;36308;46.312;25.288;2022-08-01T10:56:50;95781.72;;;23.39;53.90
50394;BME280;36308;46.312;25.288;2022-08-01T10:59:25;95780.13;;;23.38;53.76
50394;BME280;36308;46.312;25.288;2022-08-01T11:02:09;95782.84;;;23.38;53.17
50394;BME280;36308;46.312;25.288;2022-08-01T11:05:04;95791.09;;;23.38;53.58
50394;BME280;36308;46.312;25.288;2022-08-01T11:07:54;95777.81;;;23.40;53.64
50394;BME280;36308;46.312;25.288;2022-08-01T11:12:57;95787.63;;;23.54;53.25
50394;BME280;36308;46.312;25.288;2022-08-01T11:15:24;95790.69;;;23.65;53.20
50394;BME280;36308;46.312;25.288;2022-08-01T11:17:50;95781.19;;;23.74;52.85
50394;BME280;36308;46.312;25.288;2022-08-01T11:20:33;95790.19;;;23.87;52.82
50394;BME280;36308;46.312;25.288;2022-08-01T11:25:26;95790.88;;;24.12;52.28
50394;BME280;36308;46.312;25.288;2022-08-01T11:30:43;95789.13;;;24.36;52.22
50394;BME280;36308;46.312;25.288;2022-08-01T11:33:09;95787.94;;;24.49;52.53
50394;BME280;36308;46.312;25.288;2022-08-01T11:35:35;95783.97;;;24.63;52.05
50394;BME280;36308;46.312;25.288;2022-08-01T11:38:23;95786.91;;;24.70;52.11
50394;BME280;36308;46.312;25.288;2022-08-01T11:41:23;95781.31;;;24.82;51.90
50394;BME280;36308;46.312;25.288;2022-08-01T11:47:01;95775.03;;;25.17;51.03
50394;BME280;36308;46.312;25.288;2022-08-01T11:57:14;95789.94;;;25.67;48.76
50394;BME280;36308;46.312;25.288;2022-08-01T11:59:41;95777.47;;;25.73;49.31
50394;BME280;36308;46.312;25.288;2022-08-01T12:02:20;95780.44;;;25.84;48.79
50394;BME280;36308;46.312;25.288;2022-08-01T12:07:18;95786.75;;;26.04;47.83
50394;BME280;36308;46.312;25.288;2022-08-01T12:09:44;95782.97;;;26.12;47.96
50394;BME280;36308;46.312;25.288;2022-08-01T12:12:14;95780.47;;;26.27;47.64
50394;BME280;36308;46.312;25.288;2022-08-01T12:14:42;95776.34;;;26.36;47.87
50394;BME280;36308;46.312;25.288;2022-08-01T12:17:07;95786.75;;;26.47;47.56
50394;BME280;36308;46.312;25.288;2022-08-01T12:19:33;95780.75;;;26.60;47.44
50394;BME280;36308;46.312;25.288;2022-08-01T12:22:11;95776.19;;;26.72;46.93
50394;BME280;36308;46.312;25.288;2022-08-01T12:24:39;95781.19;;;26.89;46.57
50394;BME280;36308;46.312;25.288;2022-08-01T12:27:05;95786.09;;;26.99;45.53
50394;BME280;36308;46.312;25.288;2022-08-01T12:29:36;95788.41;;;26.97;44.66
50394;BME280;36308;46.312;25.288;2022-08-01T12:32:02;95790.09;;;27.02;45.25
50394;BME280;36308;46.312;25.288;2022-08-01T12:34:29;95790.97;;;27.10;45.45
50394;BME280;36308;46.312;25.288;2022-08-01T12:36:59;95796.22;;;27.18;45.01
50394;BME280;36308;46.312;25.288;2022-08-01T12:39:34;95801.47;;;27.24;45.01
50394;BME280;36308;46.312;25.288;2022-08-01T12:42:00;95800.22;;;27.21;45.45
50394;BME280;36308;46.312;25.288;2022-08-01T12:44:27;95807.78;;;27.24;45.24
50394;BME280;36308;46.312;25.288;2022-08-01T12:46:53;95806.03;;;27.16;45.47
50394;BME280;36308;46.312;25.288;2022-08-01T12:49:19;95808.34;;;27.10;45.81
50394;BME280;36308;46.312;25.288;2022-08-01T12:51:44;95816.13;;;27.05;46.44
50394;BME280;36308;46.312;25.288;2022-08-01T12:54:10;95815.22;;;26.97;46.79
50394;BME280;36308;46.312;25.288;2022-08-01T12:56:36;95808.78;;;26.89;46.72
50394;BME280;36308;46.312;25.288;2022-08-01T12:59:01;95805.06;;;26.78;46.59
50394;BME280;36308;46.312;25.288;2022-08-01T13:01:27;95802.97;;;26.71;46.73
50394;BME280;36308;46.312;25.288;2022-08-01T13:04:03;95808.31;;;26.60;46.69
50394;BME280;36308;46.312;25.288;2022-08-01T13:06:31;95799.44;;;26.51;46.97
50394;BME280;36308;46.312;25.288;2022-08-01T13:09:10;95802.50;;;26.46;47.39
50394;BME280;36308;46.312;25.288;2022-08-01T13:11:37;95797.00;;;26.46;47.41
50394;BME280;36308;46.312;25.288;2022-08-01T13:14:03;95805.13;;;26.39;47.01
50394;BME280;36308;46.312;25.288;2022-08-01T13:16:29;95788.09;;;26.33;46.50
50394;BME280;36308;46.312;25.288;2022-08-01T13:18:56;95795.47;;;26.29;46.37
50394;BME280;36308;46.312;25.288;2022-08-01T13:21:27;95799.06;;;26.30;46.24
50394;BME280;36308;46.312;25.288;2022-08-01T13:24:06;95802.59;;;26.30;46.33
50394;BME280;36308;46.312;25.288;2022-08-01T13:26:48;95806.75;;;26.20;46.34
50394;BME280;36308;46.312;25.288;2022-08-01T13:29:19;95807.31;;;26.10;46.21
50394;BME280;36308;46.312;25.288;2022-08-01T13:31:46;95792.22;;;26.00;46.54
50394;BME280;36308;46.312;25.288;2022-08-01T13:34:12;95794.38;;;25.91;45.62